Time;durP1;ratioP1;P1;durP2;ratioP2;P2;SDS_P1;SDS_P2;PMS_P1;PMS_P2;Temp;Humidity;BMP_temperature;BMP_pressure;BME280_temperature;BME280_humidity;BME280_pressure;Samples;Min_cycle;Max_cycle;Signal;HPM_P1;HPM_P2
2023/07/16 00:00:30;;;;;;;1.75;1.35;;;22.80;99.90;;;;;;7387955;19;20143;-71
2023/07/16 00:02:56;;;;;;;2.63;1.48;;;22.80;99.90;;;;;;7385221;19;20122;-70
2023/07/16 00:05:22;;;;;;;2.42;1.38;;;22.80;99.90;;;;;;7386802;19;20157;-70
2023/07/16 00:07:48;;;;;;;1.65;1.20;;;22.60;99.90;;;;;;7387051;19;20209;-70
2023/07/16 00:10:14;;;;;;;3.22;1.23;;;22.70;99.90;;;;;;7387263;19;20547;-70
2023/07/16 00:12:40;;;;;;;1.25;1.05;;;22.70;99.90;;;;;;7388755;19;20134;-69
2023/07/16 00:15:07;;;;;;;2.00;1.10;;;22.60;99.90;;;;;;7387729;19;20599;-69
2023/07/16 00:17:36;;;;;;;2.35;1.33;;;22.50;99.90;;;;;;7385659;19;20138;-70
2023/07/16 00:20:02;;;;;;;2.15;1.10;;;22.60;99.90;;;;;;7387231;19;20631;-70
2023/07/16 00:22:27;;;;;;;1.60;0.90;;;22.70;99.90;;;;;;7385299;19;20141;-69
2023/07/16 00:24:53;;;;;;;1.30;1.20;;;22.90;99.90;;;;;;7385310;19;20631;-69
2023/07/16 00:27:19;;;;;;;1.52;0.98;;;22.90;99.90;;;;;;7386343;19;20151;-69
2023/07/16 00:29:44;;;;;;;1.85;1.08;;;22.90;99.90;;;;;;7384937;19;20544;-69
2023/07/16 00:32:11;;;;;;;1.13;0.82;;;23.00;99.90;;;;;;7388778;19;20182;-68
2023/07/16 00:34:36;;;;;;;3.10;1.08;;;23.10;99.90;;;;;;7385665;19;20155;-69
2023/07/16 00:37:03;;;;;;;2.70;1.20;;;23.10;99.90;;;;;;7385317;19;20130;-69
2023/07/16 00:39:29;;;;;;;1.00;0.90;;;23.10;99.90;;;;;;7385613;19;20155;-69
2023/07/16 00:41:55;;;;;;;1.20;0.90;;;23.10;99.90;;;;;;7382586;19;20489;-70
2023/07/16 00:44:22;;;;;;;1.05;0.70;;;23.10;99.90;;;;;;7387772;19;20123;-70
2023/07/16 00:46:48;;;;;;;1.25;1.00;;;23.10;99.90;;;;;;7385383;19;20146;-70
2023/07/16 00:49:14;;;;;;;1.80;1.10;;;23.00;99.90;;;;;;7386641;19;20604;-69
2023/07/16 00:51:40;;;;;;;2.63;0.90;;;23.00;99.90;;;;;;7387314;19;20154;-69
2023/07/16 00:54:06;;;;;;;1.10;0.90;;;22.90;99.90;;;;;;7383638;19;20138;-69
2023/07/16 00:56:32;;;;;;;1.52;1.10;;;22.70;99.90;;;;;;7385411;19;20165;-69
2023/07/16 00:58:58;;;;;;;0.82;0.82;;;22.70;99.90;;;;;;7384168;19;20625;-69
2023/07/16 01:01:23;;;;;;;0.80;0.70;;;22.60;99.90;;;;;;7387336;19;20166;-68
2023/07/16 01:03:50;;;;;;;1.23;0.95;;;22.40;99.90;;;;;;7385135;19;20127;-69
2023/07/16 01:06:29;;;;;;;0.70;0.70;;;22.50;99.90;;;;;;7385202;19;20135;-69
2023/07/16 01:09:10;;;;;;;0.85;0.82;;;22.60;99.90;;;;;;7376395;19;20553;-70
2023/07/16 01:11:39;;;;;;;1.13;1.02;;;22.70;99.90;;;;;;7386939;19;20163;-68
2023/07/16 01:14:06;;;;;;;1.00;0.90;;;22.80;99.90;;;;;;7392524;19;20508;-69
2023/07/16 01:16:32;;;;;;;0.90;0.77;;;22.90;99.90;;;;;;7391701;19;20146;-70
2023/07/16 01:18:58;;;;;;;1.65;0.90;;;23.00;99.90;;;;;;7394054;19;20155;-70
2023/07/16 01:21:26;;;;;;;1.00;0.73;;;22.70;99.90;;;;;;7393082;19;20146;-70
2023/07/16 01:24:01;;;;;;;1.45;0.85;;;22.80;99.90;;;;;;7393060;19;20607;-70
2023/07/16 01:26:46;;;;;;;1.02;0.90;;;22.80;99.90;;;;;;7391096;19;20535;-70
2023/07/16 01:29:32;;;;;;;1.08;0.98;;;23.00;99.90;;;;;;7391768;19;20147;-70
2023/07/16 01:32:01;;;;;;;1.08;0.73;;;23.00;99.90;;;;;;7391396;19;20148;-70
2023/07/16 01:34:30;;;;;;;3.17;0.88;;;22.90;99.90;;;;;;7391143;19;20142;-70
2023/07/16 01:36:56;;;;;;;1.48;0.88;;;22.90;99.90;;;;;;7388660;19;20142;-69
2023/07/16 01:39:22;;;;;;;2.42;0.73;;;22.80;99.90;;;;;;7392478;19;20601;-69
2023/07/16 01:41:47;;;;;;;1.33;1.10;;;22.80;99.90;;;;;;7388947;19;20154;-69
2023/07/16 01:44:13;;;;;;;1.52;0.90;;;22.80;99.90;;;;;;7393153;19;20843;-70
2023/07/16 01:46:39;;;;;;;1.63;0.93;;;22.90;99.90;;;;;;7389935;19;20151;-70
2023/07/16 01:49:04;;;;;;;1.08;0.88;;;22.90;99.90;;;;;;7390140;19;20234;-70
2023/07/16 01:51:30;;;;;;;1.05;0.70;;;22.90;99.90;;;;;;7391448;19;20138;-70
2023/07/16 01:53:56;;;;;;;1.90;0.77;;;22.90;99.90;;;;;;7391282;19;20423;-70
2023/07/16 01:56:23;;;;;;;0.93;0.90;;;23.00;99.90;;;;;;7390325;19;20135;-70
2023/07/16 01:58:49;;;;;;;1.33;1.05;;;22.70;99.90;;;;;;7391865;19;20566;-70
2023/07/16 02:01:14;;;;;;;0.90;0.68;;;22.80;99.90;;;;;;7392011;19;20194;-69
2023/07/16 02:03:40;;;;;;;1.45;0.90;;;22.70;99.90;;;;;;7390884;19;20150;-69
2023/07/16 02:06:06;;;;;;;2.45;0.93;;;22.80;99.90;;;;;;7392117;19;20465;-69
2023/07/16 02:08:31;;;;;;;2.08;0.80;;;22.80;99.90;;;;;;7389009;19;20142;-69
2023/07/16 02:10:57;;;;;;;1.10;1.00;;;22.80;99.90;;;;;;7388596;19;20151;-70
2023/07/16 02:13:23;;;;;;;1.45;0.85;;;22.80;99.90;;;;;;7389748;19;20139;-70
2023/07/16 02:15:48;;;;;;;0.98;0.63;;;22.70;99.90;;;;;;7393450;19;20134;-70
2023/07/16 02:18:14;;;;;;;0.60;0.60;;;22.60;99.90;;;;;;7390090;19;20162;-71
2023/07/16 02:20:40;;;;;;;0.68;0.65;;;22.50;99.90;;;;;;7392859;19;20133;-69
2023/07/16 02:23:06;;;;;;;0.95;0.80;;;22.50;99.90;;;;;;7384890;19;20143;-70
2023/07/16 02:25:32;;;;;;;3.33;0.70;;;22.40;99.90;;;;;;7389063;19;20157;-70
2023/07/16 02:27:58;;;;;;;1.08;0.60;;;22.40;99.90;;;;;;7390393;19;20131;-70
2023/07/16 02:30:24;;;;;;;2.42;1.00;;;22.40;99.90;;;;;;7390174;19;20157;-70
2023/07/16 02:32:50;;;;;;;0.90;0.65;;;22.30;99.90;;;;;;7390079;19;20197;-69
2023/07/16 02:35:15;;;;;;;1.67;1.00;;;22.30;99.90;;;;;;7390180;19;20490;-70
2023/07/16 02:37:41;;;;;;;1.60;0.85;;;22.30;99.90;;;;;;7390832;19;20149;-69
2023/07/16 02:40:07;;;;;;;0.85;0.60;;;22.30;99.90;;;;;;7388726;19;20152;-69
2023/07/16 02:42:33;;;;;;;0.77;0.63;;;22.40;99.90;;;;;;7389027;19;20161;-70
2023/07/16 02:44:59;;;;;;;1.33;0.68;;;22.40;99.90;;;;;;7390905;19;20198;-70
2023/07/16 02:47:24;;;;;;;0.73;0.60;;;22.30;99.90;;;;;;7387901;19;21052;-70
2023/07/16 02:49:53;;;;;;;0.80;0.77;;;22.30;99.90;;;;;;7390343;19;20142;-70
2023/07/16 02:52:19;;;;;;;0.70;0.65;;;22.30;99.90;;;;;;7387522;19;20313;-70
2023/07/16 02:54:45;;;;;;;1.48;0.75;;;22.30;99.90;;;;;;7390803;19;20158;-70
2023/07/16 02:57:10;;;;;;;0.93;0.70;;;22.30;99.90;;;;;;7387341;19;20162;-70
2023/07/16 02:59:36;;;;;;;1.52;0.95;;;22.30;99.90;;;;;;7389680;19;20458;-68
2023/07/16 03:02:02;;;;;;;1.25;0.80;;;22.20;99.90;;;;;;7388103;19;20150;-70
2023/07/16 03:04:28;;;;;;;0.60;0.60;;;22.20;99.90;;;;;;7389774;19;20126;-70
2023/07/16 03:06:53;;;;;;;2.15;0.73;;;22.20;99.90;;;;;;7388542;19;20138;-69
2023/07/16 03:09:19;;;;;;;0.70;0.60;;;22.20;99.90;;;;;;7385411;19;20137;-70
2023/07/16 03:11:45;;;;;;;1.70;0.70;;;22.20;99.90;;;;;;7384447;19;21193;-70
2023/07/16 03:14:10;;;;;;;1.30;0.68;;;22.20;99.90;;;;;;7387480;19;20149;-70
2023/07/16 03:16:36;;;;;;;1.17;0.85;;;22.20;99.90;;;;;;7388135;19;20131;-70
2023/07/16 03:19:02;;;;;;;0.88;0.80;;;22.20;99.90;;;;;;7387311;19;20536;-70
2023/07/16 03:21:28;;;;;;;1.15;0.80;;;22.20;99.90;;;;;;7386470;19;20245;-69
2023/07/16 03:23:53;;;;;;;1.10;0.82;;;22.10;99.90;;;;;;7390824;19;20153;-70
2023/07/16 03:26:19;;;;;;;1.80;1.00;;;22.10;99.90;;;;;;7388609;19;20150;-69
2023/07/16 03:28:45;;;;;;;1.45;0.90;;;22.10;99.90;;;;;;7390255;19;20133;-70
2023/07/16 03:31:10;;;;;;;1.10;0.68;;;22.10;99.90;;;;;;7389558;19;20250;-70
2023/07/16 03:33:36;;;;;;;0.70;0.70;;;22.00;99.90;;;;;;7390283;19;20536;-70
2023/07/16 03:36:02;;;;;;;2.67;0.80;;;21.90;99.90;;;;;;7387203;19;20596;-69
2023/07/16 03:38:27;;;;;;;1.70;0.93;;;21.90;99.90;;;;;;7388871;19;20218;-70
2023/07/16 03:40:53;;;;;;;1.35;0.85;;;21.80;99.90;;;;;;7386129;19;20134;-70
2023/07/16 03:43:19;;;;;;;1.65;0.95;;;21.70;99.90;;;;;;7387167;19;20137;-70
2023/07/16 03:45:45;;;;;;;2.60;1.00;;;21.90;99.90;;;;;;7388303;19;20229;-71
2023/07/16 03:48:11;;;;;;;2.20;1.00;;;21.90;99.90;;;;;;7384881;19;20185;-71
2023/07/16 03:50:36;;;;;;;1.33;0.88;;;21.80;99.90;;;;;;7387256;19;20142;-70
2023/07/16 03:53:03;;;;;;;1.58;0.85;;;21.80;99.90;;;;;;7389817;19;20219;-70
2023/07/16 03:55:29;;;;;;;1.15;0.80;;;21.90;99.90;;;;;;7386374;19;20159;-70
2023/07/16 03:57:55;;;;;;;3.83;0.98;;;21.90;99.90;;;;;;7388021;19;20130;-71
2023/07/16 04:00:21;;;;;;;2.08;1.33;;;21.90;99.90;;;;;;7387468;19;20133;-71
2023/07/16 04:02:46;;;;;;;2.55;1.02;;;21.90;99.90;;;;;;7386447;19;20156;-71
2023/07/16 04:05:12;;;;;;;1.98;1.00;;;21.90;99.90;;;;;;7386427;19;20466;-69
2023/07/16 04:07:38;;;;;;;1.45;1.00;;;21.90;99.90;;;;;;7388828;19;20135;-70
2023/07/16 04:10:04;;;;;;;1.50;0.90;;;22.00;99.90;;;;;;7386097;19;20139;-70
2023/07/16 04:12:30;;;;;;;1.40;1.00;;;21.90;99.90;;;;;;7387406;19;20155;-70
2023/07/16 04:14:57;;;;;;;1.55;0.98;;;21.90;99.90;;;;;;7386456;19;20146;-70
2023/07/16 04:17:24;;;;;;;3.15;1.35;;;22.00;99.90;;;;;;7387542;19;20619;-70
2023/07/16 04:19:49;;;;;;;1.00;0.90;;;21.90;99.90;;;;;;7387329;19;20143;-71
2023/07/16 04:22:15;;;;;;;1.10;0.90;;;21.90;99.90;;;;;;7387546;19;20157;-70
2023/07/16 04:24:41;;;;;;;1.30;0.85;;;21.90;99.90;;;;;;7388408;19;20198;-70
2023/07/16 04:27:07;;;;;;;1.30;0.93;;;21.90;99.90;;;;;;7389571;19;20143;-71
2023/07/16 04:29:33;;;;;;;3.55;1.25;;;21.90;99.90;;;;;;7384248;19;20135;-70
2023/07/16 04:31:58;;;;;;;1.08;0.80;;;21.90;99.90;;;;;;7385708;19;20561;-70
2023/07/16 04:34:24;;;;;;;1.45;1.10;;;21.70;99.90;;;;;;7385431;19;20167;-70
2023/07/16 04:36:50;;;;;;;1.05;0.63;;;21.70;99.90;;;;;;7386857;19;20193;-70
2023/07/16 04:39:16;;;;;;;1.38;0.82;;;21.90;99.90;;;;;;7387513;19;21032;-70
2023/07/16 04:41:42;;;;;;;1.05;0.80;;;21.80;99.90;;;;;;7387887;19;20151;-70
2023/07/16 04:44:07;;;;;;;2.72;1.05;;;21.80;99.90;;;;;;7386629;19;20150;-70
2023/07/16 04:46:33;;;;;;;1.92;0.75;;;21.70;99.90;;;;;;7382146;19;20173;-70
2023/07/16 04:48:59;;;;;;;2.08;0.90;;;21.70;99.90;;;;;;7386562;19;20214;-70
2023/07/16 04:51:25;;;;;;;3.20;1.10;;;21.80;99.90;;;;;;7387726;19;20138;-70
2023/07/16 04:53:51;;;;;;;3.00;1.10;;;21.80;99.90;;;;;;7385884;19;20141;-70
2023/07/16 04:56:17;;;;;;;1.38;0.80;;;21.90;99.90;;;;;;7385651;19;20130;-70
2023/07/16 04:58:42;;;;;;;3.60;0.90;;;21.90;99.90;;;;;;7384438;19;20134;-70
2023/07/16 05:01:09;;;;;;;0.70;0.70;;;21.90;99.90;;;;;;7387693;19;20131;-70
2023/07/16 05:03:35;;;;;;;2.08;1.00;;;21.90;99.90;;;;;;7387057;19;20242;-69
2023/07/16 05:06:02;;;;;;;2.25;1.13;;;21.80;99.90;;;;;;7384078;19;20147;-69
2023/07/16 05:08:27;;;;;;;3.15;1.10;;;21.80;99.90;;;;;;7384011;19;20146;-69
2023/07/16 05:10:53;;;;;;;1.17;0.85;;;21.80;99.90;;;;;;7386944;19;20123;-69
2023/07/16 05:13:19;;;;;;;1.00;0.70;;;21.90;99.90;;;;;;7384987;19;20583;-71
2023/07/16 05:15:45;;;;;;;3.50;1.00;;;21.90;99.90;;;;;;7387562;19;20131;-70
2023/07/16 05:18:10;;;;;;;2.38;0.93;;;21.90;99.90;;;;;;7385661;19;20133;-70
2023/07/16 05:20:36;;;;;;;1.52;0.95;;;21.80;99.90;;;;;;7387323;19;20134;-70
2023/07/16 05:23:02;;;;;;;1.17;0.90;;;21.80;99.90;;;;;;7382602;19;20146;-70
2023/07/16 05:25:27;;;;;;;1.33;0.90;;;21.70;99.90;;;;;;7385353;19;20142;-69
2023/07/16 05:27:53;;;;;;;1.52;0.90;;;21.80;99.90;;;;;;7382910;19;20396;-69
2023/07/16 05:30:19;;;;;;;1.60;1.10;;;21.70;99.90;;;;;;7386353;19;20138;-70
2023/07/16 05:32:45;;;;;;;2.53;1.20;;;21.80;99.90;;;;;;7383539;19;20135;-69
2023/07/16 05:35:11;;;;;;;1.00;0.80;;;21.90;99.90;;;;;;7384390;19;20130;-69
2023/07/16 05:37:37;;;;;;;2.78;0.70;;;21.80;99.90;;;;;;7383926;19;20146;-70
2023/07/16 05:40:03;;;;;;;3.90;0.95;;;21.90;99.90;;;;;;7384831;19;20772;-70
2023/07/16 05:42:29;;;;;;;1.33;0.75;;;21.80;99.90;;;;;;7383489;19;20135;-69
2023/07/16 05:44:55;;;;;;;1.40;0.80;;;21.80;99.90;;;;;;7386995;19;20657;-68
2023/07/16 05:47:21;;;;;;;0.75;0.73;;;21.80;99.90;;;;;;7383122;19;20151;-69
2023/07/16 05:49:47;;;;;;;1.23;0.77;;;21.90;99.90;;;;;;7386434;19;20131;-70
2023/07/16 05:52:12;;;;;;;2.58;0.95;;;22.00;99.90;;;;;;7384207;19;20142;-70
2023/07/16 05:54:38;;;;;;;1.75;1.13;;;22.10;99.90;;;;;;7386076;19;20142;-71
2023/07/16 05:57:04;;;;;;;1.40;0.98;;;22.10;99.90;;;;;;7382297;19;20595;-71
2023/07/16 05:59:34;;;;;;;2.97;1.00;;;22.00;99.90;;;;;;7389084;19;20131;-70
2023/07/16 06:02:00;;;;;;;1.08;0.93;;;22.00;99.90;;;;;;7387880;19;20131;-70
2023/07/16 06:04:26;;;;;;;1.35;0.75;;;22.00;99.90;;;;;;7391522;19;20134;-70
2023/07/16 06:06:51;;;;;;;2.80;1.10;;;22.00;99.90;;;;;;7390634;19;20143;-71
2023/07/16 06:09:17;;;;;;;4.90;1.17;;;22.00;99.90;;;;;;7390392;19;20130;-71
2023/07/16 06:11:46;;;;;;;1.40;0.95;;;22.00;99.90;;;;;;7389330;19;20138;-70
2023/07/16 06:14:12;;;;;;;1.40;1.00;;;22.10;99.90;;;;;;7391578;19;20146;-70
2023/07/16 06:16:37;;;;;;;1.98;1.08;;;22.10;99.90;;;;;;7388680;19;20155;-71
2023/07/16 06:19:03;;;;;;;1.65;1.02;;;22.10;99.90;;;;;;7390945;19;20131;-71
2023/07/16 06:21:29;;;;;;;2.85;1.13;;;22.10;99.90;;;;;;7388682;19;20130;-71
2023/07/16 06:23:54;;;;;;;3.42;1.23;;;22.00;99.90;;;;;;7389107;19;20142;-71
2023/07/16 06:26:20;;;;;;;3.78;1.98;;;22.10;99.90;;;;;;7388410;19;20143;-71
2023/07/16 06:28:49;;;;;;;3.28;0.80;;;22.00;99.90;;;;;;7391694;19;20134;-71
2023/07/16 06:31:18;;;;;;;1.45;0.75;;;22.00;99.90;;;;;;7388820;19;20134;-71
2023/07/16 06:33:46;;;;;;;3.03;1.00;;;22.00;99.90;;;;;;7389788;19;20138;-70
2023/07/16 06:36:12;;;;;;;2.00;1.00;;;22.00;99.90;;;;;;7390206;19;20171;-71
2023/07/16 06:38:38;;;;;;;2.47;1.10;;;22.10;99.90;;;;;;7388922;19;20146;-69
2023/07/16 06:41:04;;;;;;;2.40;1.10;;;22.10;99.90;;;;;;7392494;19;20134;-70
2023/07/16 06:43:32;;;;;;;1.83;0.90;;;22.20;99.90;;;;;;7386555;19;20146;-71
2023/07/16 06:45:58;;;;;;;2.67;1.15;;;22.30;99.90;;;;;;7389242;19;20137;-72
2023/07/16 06:48:24;;;;;;;3.78;1.15;;;22.30;99.90;;;;;;7388467;19;20146;-70
2023/07/16 06:50:51;;;;;;;4.38;1.65;;;22.20;99.90;;;;;;7388733;19;20613;-72
2023/07/16 06:53:19;;;;;;;4.85;1.17;;;22.30;99.90;;;;;;7389638;19;20146;-72
2023/07/16 06:55:47;;;;;;;2.90;1.10;;;22.40;99.90;;;;;;7388143;19;20134;-70
2023/07/16 06:58:14;;;;;;;2.72;0.82;;;22.40;99.90;;;;;;7387160;19;20606;-71
2023/07/16 07:00:40;;;;;;;3.40;1.23;;;22.50;99.90;;;;;;7388566;19;20153;-71
2023/07/16 07:03:06;;;;;;;1.98;1.08;;;22.70;99.90;;;;;;7387459;19;20149;-71
2023/07/16 07:05:32;;;;;;;2.53;1.42;;;23.60;99.90;;;;;;7388381;19;20151;-71
2023/07/16 07:07:58;;;;;;;2.47;1.33;;;24.90;99.90;;;;;;7387251;19;20161;-71
2023/07/16 07:10:23;;;;;;;4.70;0.90;;;26.00;99.90;;;;;;7386819;19;20172;-71
2023/07/16 07:12:49;;;;;;;3.90;1.02;;;26.90;99.90;;;;;;7390720;19;20123;-71
2023/07/16 07:15:15;;;;;;;2.22;1.00;;;28.00;99.90;;;;;;7390349;19;20527;-71
2023/07/16 07:17:42;;;;;;;1.58;1.00;;;28.90;99.90;;;;;;7390543;19;20135;-70
2023/07/16 07:20:09;;;;;;;2.22;1.02;;;29.30;99.90;;;;;;7387850;19;20154;-73
2023/07/16 07:22:35;;;;;;;1.45;0.90;;;29.40;99.90;;;;;;7386223;19;20225;-72
2023/07/16 07:25:02;;;;;;;1.95;1.10;;;30.00;99.90;;;;;;7388744;19;20154;-77
2023/07/16 07:27:28;;;;;;;2.85;1.20;;;30.30;99.90;;;;;;7388114;19;20135;-79
2023/07/16 07:29:55;;;;;;;2.63;1.20;;;30.30;99.90;;;;;;7386035;19;20155;-78
2023/07/16 07:32:22;;;;;;;2.65;1.20;;;30.30;99.90;;;;;;7384769;19;20222;-78
2023/07/16 07:34:48;;;;;;;1.55;0.93;;;30.30;99.90;;;;;;7387211;19;20126;-79
2023/07/16 07:37:14;;;;;;;1.45;1.17;;;30.20;99.80;;;;;;7388413;19;20182;-79
2023/07/16 07:39:47;;;;;;;1.63;1.13;;;29.60;99.90;;;;;;7390364;19;20167;-78
2023/07/16 07:42:13;;;;;;;3.50;1.08;;;28.60;99.90;;;;;;7386717;19;20151;-79
2023/07/16 07:44:39;;;;;;;2.22;0.90;;;27.90;99.90;;;;;;7388804;19;20159;-78
2023/07/16 07:47:05;;;;;;;2.90;1.08;;;27.20;99.90;;;;;;7385292;19;20154;-78
2023/07/16 07:49:30;;;;;;;2.55;0.82;;;27.00;99.90;;;;;;7388174;19;20127;-78
2023/07/16 07:51:56;;;;;;;3.60;1.00;;;27.00;99.90;;;;;;7386583;19;20130;-79
2023/07/16 07:54:22;;;;;;;1.70;0.95;;;26.20;99.90;;;;;;7386454;19;20157;-83
2023/07/16 07:56:48;;;;;;;1.48;0.90;;;25.70;99.90;;;;;;7385866;19;20155;-81
2023/07/16 07:59:15;;;;;;;1.35;0.90;;;25.10;99.90;;;;;;7389783;19;20135;-82
2023/07/16 08:01:40;;;;;;;3.33;1.10;;;24.90;99.90;;;;;;7386508;19;20130;-83
2023/07/16 08:04:06;;;;;;;2.50;1.10;;;24.70;99.90;;;;;;7387182;19;20537;-81
2023/07/16 08:06:32;;;;;;;3.15;1.38;;;24.70;99.90;;;;;;7385118;19;20143;-80
2023/07/16 08:08:57;;;;;;;3.35;1.27;;;25.20;99.90;;;;;;7389561;19;20154;-81
2023/07/16 08:11:23;;;;;;;2.50;1.02;;;25.90;99.90;;;;;;7385743;19;20130;-82
2023/07/16 08:13:50;;;;;;;1.30;0.95;;;26.20;99.90;;;;;;7386017;19;20639;-80
2023/07/16 08:16:16;;;;;;;1.60;0.93;;;26.30;99.90;;;;;;7385645;19;20131;-79
2023/07/16 08:18:42;;;;;;;4.13;1.17;;;26.00;99.90;;;;;;7388234;19;20477;-81
2023/07/16 08:21:07;;;;;;;3.63;1.27;;;25.50;99.90;;;;;;7383310;19;20594;-81
2023/07/16 08:23:33;;;;;;;4.07;1.20;;;24.90;99.90;;;;;;7385164;19;20270;-80
2023/07/16 08:25:59;;;;;;;1.23;0.93;;;25.00;99.90;;;;;;7386735;19;20127;-81
2023/07/16 08:28:25;;;;;;;1.63;1.23;;;25.10;99.90;;;;;;7388046;19;20147;-81
2023/07/16 08:30:50;;;;;;;1.27;0.90;;;25.20;99.90;;;;;;7386515;19;20146;-82
2023/07/16 08:33:16;;;;;;;2.00;1.20;;;25.50;99.90;;;;;;7387371;19;20170;-80
2023/07/16 08:35:42;;;;;;;2.65;1.13;;;26.00;99.90;;;;;;7384844;19;20135;-80
2023/07/16 08:38:09;;;;;;;3.63;1.20;;;25.80;99.90;;;;;;7387357;19;20219;-80
2023/07/16 08:40:38;;;;;;;2.28;1.20;;;25.80;99.90;;;;;;7386721;19;20126;-79
2023/07/16 08:43:10;;;;;;;3.13;1.27;;;25.80;99.90;;;;;;7384699;19;20131;-79
2023/07/16 08:45:44;;;;;;;2.72;1.00;;;26.10;99.90;;;;;;7384796;19;20127;-80
2023/07/16 08:48:17;;;;;;;2.45;1.10;;;26.20;99.90;;;;;;7383053;19;20180;-80
2023/07/16 08:50:49;;;;;;;2.85;1.20;;;26.40;99.90;;;;;;7385184;19;20150;-81
2023/07/16 08:53:16;;;;;;;2.25;0.90;;;26.80;99.90;;;;;;7388046;19;20810;-80
2023/07/16 08:55:47;;;;;;;1.83;1.10;;;26.90;99.90;;;;;;7385059;19;20134;-79
2023/07/16 08:58:17;;;;;;;2.38;1.20;;;26.70;99.90;;;;;;7384031;19;20146;-79
2023/07/16 09:00:44;;;;;;;2.35;1.10;;;26.50;99.90;;;;;;7385992;19;20160;-80
2023/07/16 09:03:14;;;;;;;2.20;1.00;;;26.70;99.90;;;;;;7383982;19;20514;-79
2023/07/16 09:05:40;;;;;;;1.50;1.00;;;26.80;99.90;;;;;;7386928;19;20508;-78
2023/07/16 09:08:06;;;;;;;1.23;0.90;;;26.90;99.90;;;;;;7385286;19;20138;-78
2023/07/16 09:10:32;;;;;;;2.53;1.10;;;26.90;99.90;;;;;;7384183;19;20177;-73
2023/07/16 09:12:59;;;;;;;2.20;1.10;;;27.00;99.90;;;;;;7385369;19;20623;-74
2023/07/16 09:15:26;;;;;;;2.95;1.17;;;27.10;99.90;;;;;;7384638;19;20138;-75
2023/07/16 09:17:54;;;;;;;2.00;0.95;;;27.30;99.90;;;;;;7385703;19;20138;-75
2023/07/16 09:20:23;;;;;;;2.10;1.00;;;27.20;99.90;;;;;;7385784;19;20497;-74
2023/07/16 09:22:49;;;;;;;2.30;1.02;;;27.10;99.90;;;;;;7382640;19;20156;-75
2023/07/16 09:25:15;;;;;;;2.22;1.10;;;27.00;99.90;;;;;;7384662;19;20138;-75
2023/07/16 09:27:41;;;;;;;1.58;0.95;;;26.70;99.90;;;;;;7384410;19;20185;-76
2023/07/16 09:30:14;;;;;;;2.00;1.00;;;26.50;99.90;;;;;;7384729;19;20147;-76
2023/07/16 09:32:40;;;;;;;1.42;0.98;;;26.20;99.90;;;;;;7384932;19;20134;-75
2023/07/16 09:35:13;;;;;;;3.42;0.98;;;26.30;99.90;;;;;;7391232;19;20135;-74
2023/07/16 09:37:39;;;;;;;1.83;1.30;;;26.50;99.90;;;;;;7385729;19;20157;-76
2023/07/16 09:40:08;;;;;;;1.52;1.10;;;26.70;99.90;;;;;;7391110;19;20131;-74
2023/07/16 09:42:42;;;;;;;3.13;1.20;;;26.50;99.90;;;;;;7389300;19;20468;-74
2023/07/16 09:45:16;;;;;;;2.97;1.30;;;25.90;99.90;;;;;;7390493;19;20165;-74
2023/07/16 09:47:42;;;;;;;1.85;1.30;;;25.90;99.90;;;;;;7390106;19;20186;-76
2023/07/16 09:50:09;;;;;;;2.72;1.23;;;26.40;99.90;;;;;;7388850;19;20138;-74
2023/07/16 09:52:35;;;;;;;2.17;1.08;;;26.70;99.90;;;;;;7392933;19;20218;-75
2023/07/16 09:55:04;;;;;;;3.78;1.48;;;26.90;99.90;;;;;;7389943;19;20596;-74
2023/07/16 09:57:36;;;;;;;1.48;1.00;;;26.60;99.70;;;;;;7392405;19;20138;-74
2023/07/16 10:00:13;;;;;;;3.08;1.30;;;26.20;99.90;;;;;;7390552;19;20144;-75
2023/07/16 10:02:41;;;;;;;1.92;0.90;;;26.10;99.90;;;;;;7388761;19;20167;-76
2023/07/16 10:05:39;;;;;;;2.55;1.13;;;26.50;99.90;;;;;;7390024;19;20130;-75
2023/07/16 10:08:15;;;;;;;3.90;1.00;;;26.70;99.90;;;;;;7388472;19;20154;-75
2023/07/16 10:10:57;;;;;;;1.65;1.00;;;26.90;99.90;;;;;;7390359;19;20138;-74
2023/07/16 10:13:24;;;;;;;3.50;0.98;;;26.90;99.40;;;;;;7390565;19;20478;-74
2023/07/16 10:15:57;;;;;;;3.55;1.00;;;27.00;99.90;;;;;;7390762;19;20130;-75
2023/07/16 10:18:31;;;;;;;2.67;1.00;;;26.90;99.40;;;;;;7389045;19;20134;-75
2023/07/16 10:21:08;;;;;;;2.13;1.20;;;26.60;99.50;;;;;;7391178;19;20206;-74
2023/07/16 10:23:42;;;;;;;2.58;1.30;;;26.40;99.80;;;;;;7390303;19;20130;-75
2023/07/16 10:26:13;;;;;;;2.13;1.35;;;26.50;99.90;;;;;;7388365;19;20142;-74
2023/07/16 10:28:39;;;;;;;2.70;1.13;;;26.50;99.30;;;;;;7389156;19;20210;-74
2023/07/16 10:31:07;;;;;;;2.42;1.13;;;26.60;99.20;;;;;;7390573;19;20115;-74
2023/07/16 10:33:34;;;;;;;2.30;1.35;;;26.60;99.10;;;;;;7390049;19;20141;-74
2023/07/16 10:35:59;;;;;;;2.15;1.20;;;26.90;99.30;;;;;;7386236;19;20588;-73
2023/07/16 10:38:25;;;;;;;1.45;1.00;;;27.00;99.10;;;;;;7391297;19;20139;-74
2023/07/16 10:40:55;;;;;;;1.38;1.00;;;27.10;99.70;;;;;;7388456;19;20137;-74
2023/07/16 10:43:21;;;;;;;1.42;0.80;;;27.30;98.80;;;;;;7389040;19;20139;-74
2023/07/16 10:45:47;;;;;;;1.83;0.88;;;27.40;98.80;;;;;;7384019;19;20148;-75
2023/07/16 10:48:13;;;;;;;1.50;0.88;;;27.20;98.20;;;;;;7385581;19;20154;-72
2023/07/16 10:50:39;;;;;;;1.90;1.33;;;26.90;97.70;;;;;;7388801;19;20134;-73
2023/07/16 10:53:04;;;;;;;1.10;1.00;;;26.80;99.00;;;;;;7389462;19;20155;-73
2023/07/16 10:55:32;;;;;;;3.67;1.58;;;26.90;98.00;;;;;;7390449;19;20147;-73
2023/07/16 10:57:58;;;;;;;1.73;1.25;;;26.90;98.30;;;;;;7389842;19;20170;-73
2023/07/16 11:00:24;;;;;;;1.85;1.23;;;27.00;98.70;;;;;;7389672;19;20529;-73
2023/07/16 11:02:51;;;;;;;2.03;1.10;;;27.20;97.50;;;;;;7387580;19;20146;-74
2023/07/16 11:05:18;;;;;;;1.73;1.25;;;27.20;97.70;;;;;;7387500;19;20151;-72
2023/07/16 11:07:48;;;;;;;3.58;1.50;;;27.00;98.80;;;;;;7390024;19;20135;-74
2023/07/16 11:10:17;;;;;;;1.52;1.40;;;27.00;98.10;;;;;;7389493;19;20131;-74
2023/07/16 11:12:43;;;;;;;1.92;1.00;;;27.00;98.30;;;;;;7388314;19;20510;-74
2023/07/16 11:15:10;;;;;;;2.03;1.27;;;26.80;98.20;;;;;;7387016;19;20147;-74
2023/07/16 11:17:41;;;;;;;1.70;1.20;;;26.70;98.70;;;;;;7389848;19;20127;-74
2023/07/16 11:20:08;;;;;;;1.75;1.20;;;26.60;99.00;;;;;;7389152;19;20135;-74
2023/07/16 11:22:37;;;;;;;2.15;1.10;;;26.60;98.10;;;;;;7386103;19;20126;-74
2023/07/16 11:25:04;;;;;;;2.13;1.20;;;26.70;97.80;;;;;;7388080;19;20134;-74
2023/07/16 11:27:32;;;;;;;1.45;1.33;;;26.70;98.20;;;;;;7386840;19;20945;-74
2023/07/16 11:29:59;;;;;;;1.52;1.00;;;26.60;98.60;;;;;;7390467;19;20591;-73
2023/07/16 11:32:36;;;;;;;2.08;1.10;;;26.60;99.10;;;;;;7388212;19;20158;-74
2023/07/16 11:35:04;;;;;;;2.33;1.02;;;26.60;97.80;;;;;;7387439;19;20619;-74
2023/07/16 11:37:34;;;;;;;2.20;1.30;;;26.50;98.00;;;;;;7386592;19;20206;-74
2023/07/16 11:40:06;;;;;;;4.88;1.33;;;26.40;98.40;;;;;;7389011;19;20169;-76
2023/07/16 11:43:01;;;;;;;1.48;1.00;;;26.30;98.30;;;;;;7385236;19;20162;-77
2023/07/16 11:45:26;;;;;;;2.40;1.20;;;26.40;98.40;;;;;;7386996;19;20147;-76
2023/07/16 11:47:53;;;;;;;2.08;1.17;;;26.60;98.30;;;;;;7384658;19;20580;-74
2023/07/16 11:50:18;;;;;;;1.95;1.20;;;26.70;97.90;;;;;;7387793;19;20997;-76
2023/07/16 11:52:53;;;;;;;2.88;1.20;;;26.90;97.70;;;;;;7387739;19;20138;-75
2023/07/16 11:55:19;;;;;;;2.83;1.75;;;27.10;97.90;;;;;;7385763;19;20134;-76
2023/07/16 11:57:44;;;;;;;2.03;1.10;;;27.20;97.10;;;;;;7388596;19;20162;-76
2023/07/16 12:00:11;;;;;;;1.55;1.23;;;27.00;96.70;;;;;;7387702;19;20145;-77
2023/07/16 12:02:39;;;;;;;2.35;1.10;;;26.80;97.60;;;;;;7387276;19;20202;-76
2023/07/16 12:05:06;;;;;;;2.50;1.38;;;26.70;98.30;;;;;;7388309;19;20131;-75
2023/07/16 12:07:35;;;;;;;2.25;1.25;;;26.80;98.20;;;;;;7387865;19;20615;-78
2023/07/16 12:10:03;;;;;;;1.33;1.08;;;26.90;97.60;;;;;;7386859;19;20353;-74
2023/07/16 12:12:33;;;;;;;1.98;1.10;;;26.90;97.50;;;;;;7390074;19;20142;-74
2023/07/16 12:15:01;;;;;;;1.83;1.20;;;27.00;97.50;;;;;;7387514;19;21112;-74
2023/07/16 12:17:27;;;;;;;1.38;1.10;;;27.20;97.50;;;;;;7380837;19;20213;-74
2023/07/16 12:19:53;;;;;;;1.15;1.00;;;27.40;97.40;;;;;;7386797;19;20167;-75
2023/07/16 12:22:22;;;;;;;3.50;1.70;;;27.50;97.30;;;;;;7385688;19;20141;-75
2023/07/16 12:24:50;;;;;;;3.42;1.40;;;27.80;96.90;;;;;;7388258;19;20577;-76
2023/07/16 12:27:20;;;;;;;2.50;1.52;;;27.90;96.50;;;;;;7384627;19;20198;-74
2023/07/16 12:29:49;;;;;;;2.05;1.23;;;27.90;95.40;;;;;;7385611;19;20289;-74
2023/07/16 12:32:15;;;;;;;1.63;1.20;;;27.80;95.80;;;;;;7387768;19;20145;-74
2023/07/16 12:34:41;;;;;;;2.10;1.20;;;27.60;95.50;;;;;;7387996;19;20139;-75
2023/07/16 12:37:16;;;;;;;2.13;1.35;;;27.70;96.00;;;;;;7385400;19;20135;-75
2023/07/16 12:39:43;;;;;;;1.15;1.05;;;27.70;95.60;;;;;;7386721;19;20177;-77
2023/07/16 12:42:08;;;;;;;2.78;1.20;;;27.70;96.10;;;;;;7385478;19;20145;-75
2023/07/16 12:44:37;;;;;;;1.77;1.05;;;27.80;96.40;;;;;;7387000;19;20135;-76
2023/07/16 12:47:16;;;;;;;1.83;1.25;;;27.90;96.00;;;;;;7384103;19;20490;-76